sensor_id;sensor_type;location;lat;lon;timestamp;P1;durP1;ratioP1;P2;durP2;ratioP2
54139;SDS011;40046;53.254;5.900;2023-10-08T00:01:53;1.60;;;0.20;;
54139;SDS011;40046;53.254;5.900;2023-10-08T00:04:22;0.85;;;0.22;;
54139;SDS011;40046;53.254;5.900;2023-10-08T00:06:48;3.72;;;0.30;;
54139;SDS011;40046;53.254;5.900;2023-10-08T00:09:17;2.53;;;0.40;;
54139;SDS011;40046;53.254;5.900;2023-10-08T00:11:46;3.97;;;0.70;;
54139;SDS011;40046;53.254;5.900;2023-10-08T00:14:18;3.20;;;0.25;;
54139;SDS011;40046;53.254;5.900;2023-10-08T00:16:46;1.73;;;0.40;;
54139;SDS011;40046;53.254;5.900;2023-10-08T00:19:15;5.60;;;0.43;;
54139;SDS011;40046;53.254;5.900;2023-10-08T00:21:43;3.40;;;0.40;;
54139;SDS011;40046;53.254;5.900;2023-10-08T00:24:11;2.42;;;0.30;;
54139;SDS011;40046;53.254;5.900;2023-10-08T00:26:40;1.73;;;0.38;;
54139;SDS011;40046;53.254;5.900;2023-10-08T00:29:07;0.82;;;0.30;;
54139;SDS011;40046;53.254;5.900;2023-10-08T00:31:46;2.60;;;0.65;;
54139;SDS011;40046;53.254;5.900;2023-10-08T00:34:15;3.95;;;0.63;;
54139;SDS011;40046;53.254;5.900;2023-10-08T00:36:43;1.70;;;0.30;;
54139;SDS011;40046;53.254;5.900;2023-10-08T00:39:10;1.85;;;0.50;;
54139;SDS011;40046;53.254;5.900;2023-10-08T00:41:45;2.15;;;0.80;;
54139;SDS011;40046;53.254;5.900;2023-10-08T00:44:12;2.75;;;0.50;;
54139;SDS011;40046;53.254;5.900;2023-10-08T00:46:41;2.63;;;0.65;;
54139;SDS011;40046;53.254;5.900;2023-10-08T00:49:15;4.40;;;0.60;;
54139;SDS011;40046;53.254;5.900;2023-10-08T00:51:51;2.75;;;0.22;;
54139;SDS011;40046;53.254;5.900;2023-10-08T00:54:32;2.85;;;0.32;;
54139;SDS011;40046;53.254;5.900;2023-10-08T00:57:00;4.13;;;0.70;;
54139;SDS011;40046;53.254;5.900;2023-10-08T00:59:33;1.52;;;0.32;;
54139;SDS011;40046;53.254;5.900;2023-10-08T01:02:07;1.15;;;0.20;;
54139;SDS011;40046;53.254;5.900;2023-10-08T01:04:39;1.38;;;0.25;;
54139;SDS011;40046;53.254;5.900;2023-10-08T01:07:07;5.35;;;0.60;;
54139;SDS011;40046;53.254;5.900;2023-10-08T01:09:42;2.83;;;0.60;;
54139;SDS011;40046;53.254;5.900;2023-10-08T01:14:37;3.70;;;0.52;;
54139;SDS011;40046;53.254;5.900;2023-10-08T01:17:07;3.30;;;0.50;;
54139;SDS011;40046;53.254;5.900;2023-10-08T01:19:33;4.05;;;0.50;;
54139;SDS011;40046;53.254;5.900;2023-10-08T01:22:04;2.55;;;0.20;;
54139;SDS011;40046;53.254;5.900;2023-10-08T01:24:42;1.65;;;0.30;;
54139;SDS011;40046;53.254;5.900;2023-10-08T01:27:09;5.55;;;0.95;;
54139;SDS011;40046;53.254;5.900;2023-10-08T01:29:37;3.97;;;0.60;;
54139;SDS011;40046;53.254;5.900;2023-10-08T01:32:04;4.82;;;0.98;;
54139;SDS011;40046;53.254;5.900;2023-10-08T01:34:41;5.32;;;0.63;;
54139;SDS011;40046;53.254;5.900;2023-10-08T01:37:14;2.22;;;0.47;;
54139;SDS011;40046;53.254;5.900;2023-10-08T01:39:45;2.83;;;0.80;;
54139;SDS011;40046;53.254;5.900;2023-10-08T01:42:15;3.37;;;0.50;;
54139;SDS011;40046;53.254;5.900;2023-10-08T01:44:46;6.60;;;0.60;;
54139;SDS011;40046;53.254;5.900;2023-10-08T01:47:16;3.03;;;0.45;;
54139;SDS011;40046;53.254;5.900;2023-10-08T01:49:43;1.55;;;0.60;;
54139;SDS011;40046;53.254;5.900;2023-10-08T01:52:11;7.53;;;0.93;;
54139;SDS011;40046;53.254;5.900;2023-10-08T01:54:50;3.22;;;0.57;;
54139;SDS011;40046;53.254;5.900;2023-10-08T01:57:19;5.13;;;0.95;;
54139;SDS011;40046;53.254;5.900;2023-10-08T01:59:45;6.82;;;1.15;;
54139;SDS011;40046;53.254;5.900;2023-10-08T02:02:12;2.40;;;0.55;;
54139;SDS011;40046;53.254;5.900;2023-10-08T02:04:40;4.80;;;0.50;;
54139;SDS011;40046;53.254;5.900;2023-10-08T02:07:07;3.90;;;0.63;;
54139;SDS011;40046;53.254;5.900;2023-10-08T02:09:33;4.35;;;0.82;;
54139;SDS011;40046;53.254;5.900;2023-10-08T02:12:00;5.72;;;0.85;;
54139;SDS011;40046;53.254;5.900;2023-10-08T02:14:26;4.53;;;0.90;;
54139;SDS011;40046;53.254;5.900;2023-10-08T02:16:56;4.45;;;0.90;;
54139;SDS011;40046;53.254;5.900;2023-10-08T02:19:26;4.65;;;0.85;;
54139;SDS011;40046;53.254;5.900;2023-10-08T02:21:53;4.00;;;0.75;;
54139;SDS011;40046;53.254;5.900;2023-10-08T02:24:23;3.90;;;0.82;;
54139;SDS011;40046;53.254;5.900;2023-10-08T02:26:53;3.33;;;0.65;;
54139;SDS011;40046;53.254;5.900;2023-10-08T02:29:25;6.65;;;0.95;;
54139;SDS011;40046;53.254;5.900;2023-10-08T02:31:51;3.10;;;0.75;;
54139;SDS011;40046;53.254;5.900;2023-10-08T02:34:20;2.90;;;0.65;;
54139;SDS011;40046;53.254;5.900;2023-10-08T02:36:47;4.18;;;1.25;;
54139;SDS011;40046;53.254;5.900;2023-10-08T02:39:13;7.05;;;1.52;;
54139;SDS011;40046;53.254;5.900;2023-10-08T02:41:46;6.65;;;0.75;;
54139;SDS011;40046;53.254;5.900;2023-10-08T02:44:12;4.93;;;0.80;;
54139;SDS011;40046;53.254;5.900;2023-10-08T02:46:42;2.17;;;0.60;;
54139;SDS011;40046;53.254;5.900;2023-10-08T02:49:19;4.32;;;1.00;;
54139;SDS011;40046;53.254;5.900;2023-10-08T02:51:53;3.33;;;0.85;;
54139;SDS011;40046;53.254;5.900;2023-10-08T02:54:21;4.07;;;0.60;;
54139;SDS011;40046;53.254;5.900;2023-10-08T02:56:57;2.55;;;0.70;;
54139;SDS011;40046;53.254;5.900;2023-10-08T02:59:31;8.27;;;0.95;;
54139;SDS011;40046;53.254;5.900;2023-10-08T03:02:11;4.60;;;0.77;;
54139;SDS011;40046;53.254;5.900;2023-10-08T03:04:44;9.00;;;1.00;;
54139;SDS011;40046;53.254;5.900;2023-10-08T03:07:14;7.18;;;1.05;;
54139;SDS011;40046;53.254;5.900;2023-10-08T03:09:49;6.65;;;0.95;;
54139;SDS011;40046;53.254;5.900;2023-10-08T03:12:16;6.22;;;1.05;;
54139;SDS011;40046;53.254;5.900;2023-10-08T03:14:42;9.18;;;1.05;;
54139;SDS011;40046;53.254;5.900;2023-10-08T03:17:29;8.30;;;1.27;;
54139;SDS011;40046;53.254;5.900;2023-10-08T03:19:56;3.17;;;0.90;;
54139;SDS011;40046;53.254;5.900;2023-10-08T03:22:48;7.60;;;1.10;;
54139;SDS011;40046;53.254;5.900;2023-10-08T03:25:15;6.70;;;1.30;;
54139;SDS011;40046;53.254;5.900;2023-10-08T03:27:42;3.80;;;0.98;;
54139;SDS011;40046;53.254;5.900;2023-10-08T03:30:09;6.47;;;1.05;;
54139;SDS011;40046;53.254;5.900;2023-10-08T03:32:43;10.35;;;1.35;;
54139;SDS011;40046;53.254;5.900;2023-10-08T03:35:25;5.32;;;1.25;;
54139;SDS011;40046;53.254;5.900;2023-10-08T03:38:01;6.20;;;1.17;;
54139;SDS011;40046;53.254;5.900;2023-10-08T03:40:46;3.42;;;1.10;;
54139;SDS011;40046;53.254;5.900;2023-10-08T03:43:14;6.45;;;1.40;;
54139;SDS011;40046;53.254;5.900;2023-10-08T03:45:45;4.47;;;1.13;;
54139;SDS011;40046;53.254;5.900;2023-10-08T03:48:24;4.45;;;1.13;;
54139;SDS011;40046;53.254;5.900;2023-10-08T03:50:50;6.25;;;1.35;;
54139;SDS011;40046;53.254;5.900;2023-10-08T03:53:32;5.45;;;1.38;;
54139;SDS011;40046;53.254;5.900;2023-10-08T03:56:18;8.88;;;1.40;;
54139;SDS011;40046;53.254;5.900;2023-10-08T03:58:45;11.18;;;1.25;;
54139;SDS011;40046;53.254;5.900;2023-10-08T04:01:12;5.82;;;1.10;;
54139;SDS011;40046;53.254;5.900;2023-10-08T04:03:44;9.02;;;1.30;;
54139;SDS011;40046;53.254;5.900;2023-10-08T04:06:16;7.63;;;1.55;;
54139;SDS011;40046;53.254;5.900;2023-10-08T04:08:47;8.23;;;1.60;;
54139;SDS011;40046;53.254;5.900;2023-10-08T04:11:32;5.30;;;0.98;;
54139;SDS011;40046;53.254;5.900;2023-10-08T04:14:14;8.57;;;1.20;;
54139;SDS011;40046;53.254;5.900;2023-10-08T04:16:41;9.10;;;1.13;;
54139;SDS011;40046;53.254;5.900;2023-10-08T04:19:08;7.03;;;1.58;;
54139;SDS011;40046;53.254;5.900;2023-10-08T04:21:34;5.32;;;1.42;;
54139;SDS011;40046;53.254;5.900;2023-10-08T04:24:01;7.80;;;1.50;;
54139;SDS011;40046;53.254;5.900;2023-10-08T04:26:30;14.40;;;2.55;;
54139;SDS011;40046;53.254;5.900;2023-10-08T04:28:58;6.95;;;1.58;;
54139;SDS011;40046;53.254;5.900;2023-10-08T04:31:35;6.82;;;1.88;;
54139;SDS011;40046;53.254;5.900;2023-10-08T04:34:03;7.03;;;1.45;;
54139;SDS011;40046;53.254;5.900;2023-10-08T04:36:36;9.55;;;1.52;;
54139;SDS011;40046;53.254;5.900;2023-10-08T04:39:05;4.88;;;1.73;;
54139;SDS011;40046;53.254;5.900;2023-10-08T04:41:40;9.18;;;1.55;;
54139;SDS011;40046;53.254;5.900;2023-10-08T04:44:11;7.70;;;1.48;;
54139;SDS011;40046;53.254;5.900;2023-10-08T04:46:41;6.10;;;1.75;;
54139;SDS011;40046;53.254;5.900;2023-10-08T04:49:17;9.57;;;1.83;;
54139;SDS011;40046;53.254;5.900;2023-10-08T04:51:54;6.63;;;1.33;;
54139;SDS011;40046;53.254;5.900;2023-10-08T04:54:28;10.77;;;1.40;;
54139;SDS011;40046;53.254;5.900;2023-10-08T04:57:01;13.60;;;1.95;;
54139;SDS011;40046;53.254;5.900;2023-10-08T04:59:31;9.50;;;1.88;;
54139;SDS011;40046;53.254;5.900;2023-10-08T05:01:58;9.82;;;2.17;;
54139;SDS011;40046;53.254;5.900;2023-10-08T05:04:41;6.90;;;1.80;;
54139;SDS011;40046;53.254;5.900;2023-10-08T05:07:24;8.63;;;2.08;;
54139;SDS011;40046;53.254;5.900;2023-10-08T05:10:23;11.35;;;2.25;;
54139;SDS011;40046;53.254;5.900;2023-10-08T05:12:49;8.20;;;1.63;;
54139;SDS011;40046;53.254;5.900;2023-10-08T05:15:45;11.85;;;2.03;;
54139;SDS011;40046;53.254;5.900;2023-10-08T05:18:23;8.45;;;1.60;;
54139;SDS011;40046;53.254;5.900;2023-10-08T05:21:03;9.27;;;1.67;;
54139;SDS011;40046;53.254;5.900;2023-10-08T05:23:49;6.88;;;1.52;;
54139;SDS011;40046;53.254;5.900;2023-10-08T05:26:35;10.88;;;1.77;;
54139;SDS011;40046;53.254;5.900;2023-10-08T05:29:07;11.70;;;1.65;;
54139;SDS011;40046;53.254;5.900;2023-10-08T05:31:53;10.18;;;1.48;;
54139;SDS011;40046;53.254;5.900;2023-10-08T05:34:40;9.20;;;1.65;;
54139;SDS011;40046;53.254;5.900;2023-10-08T05:37:16;11.77;;;1.70;;
54139;SDS011;40046;53.254;5.900;2023-10-08T05:40:03;9.55;;;1.70;;
54139;SDS011;40046;53.254;5.900;2023-10-08T05:42:43;9.63;;;1.73;;
54139;SDS011;40046;53.254;5.900;2023-10-08T05:45:15;6.53;;;1.95;;
54139;SDS011;40046;53.254;5.900;2023-10-08T05:47:54;7.40;;;1.50;;
54139;SDS011;40046;53.254;5.900;2023-10-08T05:50:40;6.95;;;1.55;;
54139;SDS011;40046;53.254;5.900;2023-10-08T05:53:20;10.68;;;1.83;;
54139;SDS011;40046;53.254;5.900;2023-10-08T05:56:06;7.13;;;1.55;;
54139;SDS011;40046;53.254;5.900;2023-10-08T05:58:52;6.60;;;1.83;;
54139;SDS011;40046;53.254;5.900;2023-10-08T06:01:37;10.38;;;1.83;;
54139;SDS011;40046;53.254;5.900;2023-10-08T06:04:07;7.05;;;1.40;;
54139;SDS011;40046;53.254;5.900;2023-10-08T06:07:06;9.60;;;1.83;;
54139;SDS011;40046;53.254;5.900;2023-10-08T06:09:42;5.20;;;1.50;;
54139;SDS011;40046;53.254;5.900;2023-10-08T06:12:26;14.43;;;1.60;;
54139;SDS011;40046;53.254;5.900;2023-10-08T06:14:55;8.40;;;2.15;;
54139;SDS011;40046;53.254;5.900;2023-10-08T06:17:34;9.82;;;2.22;;
54139;SDS011;40046;53.254;5.900;2023-10-08T06:20:21;8.43;;;1.60;;
54139;SDS011;40046;53.254;5.900;2023-10-08T06:22:51;7.70;;;1.58;;
54139;SDS011;40046;53.254;5.900;2023-10-08T06:25:19;7.55;;;1.52;;
54139;SDS011;40046;53.254;5.900;2023-10-08T06:27:49;7.40;;;1.33;;
54139;SDS011;40046;53.254;5.900;2023-10-08T06:30:23;7.93;;;2.00;;
54139;SDS011;40046;53.254;5.900;2023-10-08T06:32:54;6.60;;;1.38;;
54139;SDS011;40046;53.254;5.900;2023-10-08T06:35:21;6.80;;;1.52;;
54139;SDS011;40046;53.254;5.900;2023-10-08T06:37:52;6.65;;;1.40;;
54139;SDS011;40046;53.254;5.900;2023-10-08T06:40:24;13.75;;;2.25;;
54139;SDS011;40046;53.254;5.900;2023-10-08T06:43:03;12.57;;;2.58;;
54139;SDS011;40046;53.254;5.900;2023-10-08T06:45:38;7.50;;;2.42;;
54139;SDS011;40046;53.254;5.900;2023-10-08T06:48:05;6.68;;;2.13;;
54139;SDS011;40046;53.254;5.900;2023-10-08T06:50:32;6.72;;;1.70;;
54139;SDS011;40046;53.254;5.900;2023-10-08T06:53:02;8.85;;;1.50;;
54139;SDS011;40046;53.254;5.900;2023-10-08T06:55:35;8.05;;;1.60;;
54139;SDS011;40046;53.254;5.900;2023-10-08T06:58:02;6.03;;;1.58;;
54139;SDS011;40046;53.254;5.900;2023-10-08T07:00:31;9.00;;;1.60;;
54139;SDS011;40046;53.254;5.900;2023-10-08T07:03:14;17.83;;;4.03;;
54139;SDS011;40046;53.254;5.900;2023-10-08T07:05:41;10.40;;;2.20;;
54139;SDS011;40046;53.254;5.900;2023-10-08T07:08:12;7.68;;;1.85;;
54139;SDS011;40046;53.254;5.900;2023-10-08T07:10:40;8.70;;;2.50;;
54139;SDS011;40046;53.254;5.900;2023-10-08T07:13:07;9.18;;;2.17;;
54139;SDS011;40046;53.254;5.900;2023-10-08T07:15:34;5.90;;;2.15;;
54139;SDS011;40046;53.254;5.900;2023-10-08T07:18:05;12.63;;;1.80;;
54139;SDS011;40046;53.254;5.900;2023-10-08T07:20:38;9.77;;;2.72;;
54139;SDS011;40046;53.254;5.900;2023-10-08T07:23:07;7.53;;;2.00;;
54139;SDS011;40046;53.254;5.900;2023-10-08T07:25:56;10.30;;;2.00;;
54139;SDS011;40046;53.254;5.900;2023-10-08T07:28:41;7.30;;;1.60;;
54139;SDS011;40046;53.254;5.900;2023-10-08T07:31:19;8.68;;;1.80;;
54139;SDS011;40046;53.254;5.900;2023-10-08T07:33:50;11.38;;;1.55;;
54139;SDS011;40046;53.254;5.900;2023-10-08T07:36:26;6.57;;;2.05;;
54139;SDS011;40046;53.254;5.900;2023-10-08T07:38:54;5.90;;;2.03;;
54139;SDS011;40046;53.254;5.900;2023-10-08T07:41:20;8.50;;;3.13;;
54139;SDS011;40046;53.254;5.900;2023-10-08T07:43:47;6.78;;;1.77;;
54139;SDS011;40046;53.254;5.900;2023-10-08T07:46:24;10.95;;;2.38;;
54139;SDS011;40046;53.254;5.900;2023-10-08T07:48:54;10.88;;;2.15;;
54139;SDS011;40046;53.254;5.900;2023-10-08T07:51:20;9.32;;;1.88;;
54139;SDS011;40046;53.254;5.900;2023-10-08T07:53:50;7.50;;;2.70;;
54139;SDS011;40046;53.254;5.900;2023-10-08T07:56:21;7.75;;;2.20;;
54139;SDS011;40046;53.254;5.900;2023-10-08T07:58:47;9.35;;;2.25;;
54139;SDS011;40046;53.254;5.900;2023-10-08T08:01:13;8.48;;;1.95;;
54139;SDS011;40046;53.254;5.900;2023-10-08T08:03:40;11.93;;;2.03;;
54139;SDS011;40046;53.254;5.900;2023-10-08T08:06:11;11.85;;;2.22;;
54139;SDS011;40046;53.254;5.900;2023-10-08T08:08:39;7.60;;;1.60;;
54139;SDS011;40046;53.254;5.900;2023-10-08T08:11:05;8.13;;;1.88;;
54139;SDS011;40046;53.254;5.900;2023-10-08T08:13:39;8.05;;;1.55;;
54139;SDS011;40046;53.254;5.900;2023-10-08T08:16:12;9.35;;;2.20;;
54139;SDS011;40046;53.254;5.900;2023-10-08T08:18:52;11.00;;;3.55;;
54139;SDS011;40046;53.254;5.900;2023-10-08T08:21:22;8.35;;;2.05;;
54139;SDS011;40046;53.254;5.900;2023-10-08T08:23:49;6.15;;;1.50;;
54139;SDS011;40046;53.254;5.900;2023-10-08T08:26:16;9.45;;;2.10;;
54139;SDS011;40046;53.254;5.900;2023-10-08T08:28:55;9.10;;;1.85;;
54139;SDS011;40046;53.254;5.900;2023-10-08T08:31:22;6.20;;;1.73;;
54139;SDS011;40046;53.254;5.900;2023-10-08T08:33:48;6.32;;;1.70;;
54139;SDS011;40046;53.254;5.900;2023-10-08T08:36:28;7.43;;;1.52;;
54139;SDS011;40046;53.254;5.900;2023-10-08T08:38:55;7.53;;;1.50;;
54139;SDS011;40046;53.254;5.900;2023-10-08T08:41:21;8.23;;;1.65;;
54139;SDS011;40046;53.254;5.900;2023-10-08T08:43:51;9.60;;;1.45;;
54139;SDS011;40046;53.254;5.900;2023-10-08T08:46:31;9.25;;;1.80;;
54139;SDS011;40046;53.254;5.900;2023-10-08T08:49:00;9.98;;;2.25;;
54139;SDS011;40046;53.254;5.900;2023-10-08T08:51:27;5.70;;;1.20;;
54139;SDS011;40046;53.254;5.900;2023-10-08T08:53:55;8.85;;;1.70;;
54139;SDS011;40046;53.254;5.900;2023-10-08T08:56:21;11.82;;;1.48;;
54139;SDS011;40046;53.254;5.900;2023-10-08T08:58:50;6.50;;;2.75;;
54139;SDS011;40046;53.254;5.900;2023-10-08T09:01:17;9.25;;;2.13;;
54139;SDS011;40046;53.254;5.900;2023-10-08T09:03:44;7.15;;;1.48;;
54139;SDS011;40046;53.254;5.900;2023-10-08T09:06:13;7.30;;;1.65;;
54139;SDS011;40046;53.254;5.900;2023-10-08T09:08:39;5.63;;;1.60;;
54139;SDS011;40046;53.254;5.900;2023-10-08T09:11:17;9.38;;;1.90;;
54139;SDS011;40046;53.254;5.900;2023-10-08T09:13:43;13.55;;;1.90;;
54139;SDS011;40046;53.254;5.900;2023-10-08T09:16:14;8.73;;;1.23;;
54139;SDS011;40046;53.254;5.900;2023-10-08T09:18:41;11.20;;;2.90;;
54139;SDS011;40046;53.254;5.900;2023-10-08T09:21:12;8.77;;;1.55;;
54139;SDS011;40046;53.254;5.900;2023-10-08T09:23:39;9.77;;;1.50;;
54139;SDS011;40046;53.254;5.900;2023-10-08T09:26:09;6.80;;;1.38;;
54139;SDS011;40046;53.254;5.900;2023-10-08T09:28:36;5.13;;;1.30;;
54139;SDS011;40046;53.254;5.900;2023-10-08T09:31:09;11.85;;;2.47;;
54139;SDS011;40046;53.254;5.900;2023-10-08T09:33:36;7.47;;;1.35;;
54139;SDS011;40046;53.254;5.900;2023-10-08T09:36:03;8.52;;;1.42;;
54139;SDS011;40046;53.254;5.900;2023-10-08T09:38:35;7.07;;;1.80;;
54139;SDS011;40046;53.254;5.900;2023-10-08T09:41:02;6.70;;;2.28;;
54139;SDS011;40046;53.254;5.900;2023-10-08T09:43:29;8.13;;;1.98;;
54139;SDS011;40046;53.254;5.900;2023-10-08T09:48:31;9.77;;;1.73;;
54139;SDS011;40046;53.254;5.900;2023-10-08T09:51:02;8.75;;;2.10;;
54139;SDS011;40046;53.254;5.900;2023-10-08T09:53:43;6.95;;;2.00;;
54139;SDS011;40046;53.254;5.900;2023-10-08T09:56:14;7.45;;;1.88;;
54139;SDS011;40046;53.254;5.900;2023-10-08T09:58:43;7.72;;;2.45;;
54139;SDS011;40046;53.254;5.900;2023-10-08T10:01:10;7.25;;;1.98;;
54139;SDS011;40046;53.254;5.900;2023-10-08T10:03:36;9.82;;;1.90;;
54139;SDS011;40046;53.254;5.900;2023-10-08T10:06:04;8.10;;;1.40;;
54139;SDS011;40046;53.254;5.900;2023-10-08T10:08:35;9.13;;;1.60;;
54139;SDS011;40046;53.254;5.900;2023-10-08T10:11:01;17.70;;;2.85;;
54139;SDS011;40046;53.254;5.900;2023-10-08T10:13:28;10.20;;;1.88;;
54139;SDS011;40046;53.254;5.900;2023-10-08T10:15:54;9.27;;;1.75;;
54139;SDS011;40046;53.254;5.900;2023-10-08T10:20:51;12.30;;;2.15;;
54139;SDS011;40046;53.254;5.900;2023-10-08T10:26:06;12.32;;;2.33;;
54139;SDS011;40046;53.254;5.900;2023-10-08T10:31:37;8.88;;;2.25;;
54139;SDS011;40046;53.254;5.900;2023-10-08T10:34:04;8.68;;;1.80;;
54139;SDS011;40046;53.254;5.900;2023-10-08T10:36:31;9.27;;;1.90;;
54139;SDS011;40046;53.254;5.900;2023-10-08T10:38:57;9.27;;;2.00;;
54139;SDS011;40046;53.254;5.900;2023-10-08T10:41:23;9.32;;;1.67;;
54139;SDS011;40046;53.254;5.900;2023-10-08T10:43:49;10.70;;;1.90;;
54139;SDS011;40046;53.254;5.900;2023-10-08T10:46:18;15.30;;;3.63;;
54139;SDS011;40046;53.254;5.900;2023-10-08T10:48:56;11.15;;;2.10;;
54139;SDS011;40046;53.254;5.900;2023-10-08T10:51:43;6.03;;;1.20;;
54139;SDS011;40046;53.254;5.900;2023-10-08T10:54:09;10.30;;;2.72;;
54139;SDS011;40046;53.254;5.900;2023-10-08T10:56:35;11.98;;;2.28;;
54139;SDS011;40046;53.254;5.900;2023-10-08T10:59:10;6.82;;;1.63;;
54139;SDS011;40046;53.254;5.900;2023-10-08T11:01:52;10.77;;;1.80;;
54139;SDS011;40046;53.254;5.900;2023-10-08T11:04:30;8.73;;;1.77;;
54139;SDS011;40046;53.254;5.900;2023-10-08T11:06:56;7.90;;;1.95;;
54139;SDS011;40046;53.254;5.900;2023-10-08T11:09:24;16.13;;;2.30;;
54139;SDS011;40046;53.254;5.900;2023-10-08T11:12:10;11.32;;;1.92;;
54139;SDS011;40046;53.254;5.900;2023-10-08T11:14:37;10.48;;;2.03;;
54139;SDS011;40046;53.254;5.900;2023-10-08T11:17:10;11.30;;;2.50;;
54139;SDS011;40046;53.254;5.900;2023-10-08T11:19:36;8.93;;;1.63;;
54139;SDS011;40046;53.254;5.900;2023-10-08T11:22:03;12.02;;;2.00;;
54139;SDS011;40046;53.254;5.900;2023-10-08T11:24:31;13.25;;;1.75;;
54139;SDS011;40046;53.254;5.900;2023-10-08T11:27:02;9.05;;;1.63;;
54139;SDS011;40046;53.254;5.900;2023-10-08T11:29:49;10.45;;;1.80;;
54139;SDS011;40046;53.254;5.900;2023-10-08T11:32:23;10.05;;;2.17;;
54139;SDS011;40046;53.254;5.900;2023-10-08T11:34:55;5.45;;;1.45;;
54139;SDS011;40046;53.254;5.900;2023-10-08T11:39:54;7.60;;;1.40;;
54139;SDS011;40046;53.254;5.900;2023-10-08T11:42:23;10.35;;;1.77;;
54139;SDS011;40046;53.254;5.900;2023-10-08T11:45:02;9.27;;;2.20;;
54139;SDS011;40046;53.254;5.900;2023-10-08T11:47:43;11.85;;;2.45;;
54139;SDS011;40046;53.254;5.900;2023-10-08T11:50:10;10.57;;;2.78;;
54139;SDS011;40046;53.254;5.900;2023-10-08T11:52:41;11.20;;;1.90;;
54139;SDS011;40046;53.254;5.900;2023-10-08T11:55:08;8.65;;;1.60;;
54139;SDS011;40046;53.254;5.900;2023-10-08T11:57:35;9.40;;;2.55;;
54139;SDS011;40046;53.254;5.900;2023-10-08T12:00:03;8.85;;;1.60;;
54139;SDS011;40046;53.254;5.900;2023-10-08T12:02:47;10.95;;;2.35;;
54139;SDS011;40046;53.254;5.900;2023-10-08T12:05:13;9.43;;;1.92;;
54139;SDS011;40046;53.254;5.900;2023-10-08T12:07:49;6.97;;;2.05;;
54139;SDS011;40046;53.254;5.900;2023-10-08T12:10:23;5.43;;;1.58;;
54139;SDS011;40046;53.254;5.900;2023-10-08T12:12:49;11.68;;;2.35;;
54139;SDS011;40046;53.254;5.900;2023-10-08T12:15:18;7.85;;;1.60;;
54139;SDS011;40046;53.254;5.900;2023-10-08T12:17:47;9.65;;;1.70;;
54139;SDS011;40046;53.254;5.900;2023-10-08T12:20:32;8.38;;;1.45;;
54139;SDS011;40046;53.254;5.900;2023-10-08T12:22:59;10.27;;;2.10;;
54139;SDS011;40046;53.254;5.900;2023-10-08T12:25:25;10.90;;;1.77;;
54139;SDS011;40046;53.254;5.900;2023-10-08T12:27:52;9.07;;;1.40;;
54139;SDS011;40046;53.254;5.900;2023-10-08T12:30:18;10.32;;;1.75;;
54139;SDS011;40046;53.254;5.900;2023-10-08T12:32:44;9.85;;;1.67;;
54139;SDS011;40046;53.254;5.900;2023-10-08T12:35:11;9.95;;;2.05;;
54139;SDS011;40046;53.254;5.900;2023-10-08T12:37:38;12.52;;;2.05;;
54139;SDS011;40046;53.254;5.900;2023-10-08T12:40:06;9.00;;;1.45;;
54139;SDS011;40046;53.254;5.900;2023-10-08T12:42:50;9.18;;;2.00;;
54139;SDS011;40046;53.254;5.900;2023-10-08T12:45:16;8.40;;;2.00;;
54139;SDS011;40046;53.254;5.900;2023-10-08T12:47:51;11.02;;;2.00;;
54139;SDS011;40046;53.254;5.900;2023-10-08T12:50:18;13.27;;;2.75;;
54139;SDS011;40046;53.254;5.900;2023-10-08T12:53:08;8.13;;;1.50;;
54139;SDS011;40046;53.254;5.900;2023-10-08T12:55:39;13.05;;;2.30;;
54139;SDS011;40046;53.254;5.900;2023-10-08T12:58:05;8.88;;;1.60;;
54139;SDS011;40046;53.254;5.900;2023-10-08T13:00:37;9.30;;;1.70;;
54139;SDS011;40046;53.254;5.900;2023-10-08T13:03:04;6.28;;;1.67;;
54139;SDS011;40046;53.254;5.900;2023-10-08T13:05:48;6.03;;;1.60;;
54139;SDS011;40046;53.254;5.900;2023-10-08T13:08:18;4.43;;;1.33;;
54139;SDS011;40046;53.254;5.900;2023-10-08T13:10:45;8.65;;;1.95;;
54139;SDS011;40046;53.254;5.900;2023-10-08T13:13:11;7.72;;;1.50;;
54139;SDS011;40046;53.254;5.900;2023-10-08T13:15:38;10.43;;;1.70;;
54139;SDS011;40046;53.254;5.900;2023-10-08T13:18:07;8.75;;;1.70;;
54139;SDS011;40046;53.254;5.900;2023-10-08T13:20:33;6.97;;;1.50;;
54139;SDS011;40046;53.254;5.900;2023-10-08T13:23:00;6.38;;;1.40;;
54139;SDS011;40046;53.254;5.900;2023-10-08T13:25:26;5.95;;;1.90;;
54139;SDS011;40046;53.254;5.900;2023-10-08T13:27:52;9.57;;;1.98;;
54139;SDS011;40046;53.254;5.900;2023-10-08T13:30:19;6.97;;;1.58;;
54139;SDS011;40046;53.254;5.900;2023-10-08T13:32:46;9.80;;;2.75;;
54139;SDS011;40046;53.254;5.900;2023-10-08T13:35:12;5.63;;;1.08;;
54139;SDS011;40046;53.254;5.900;2023-10-08T13:37:38;7.65;;;1.40;;
54139;SDS011;40046;53.254;5.900;2023-10-08T13:40:05;8.63;;;1.40;;
54139;SDS011;40046;53.254;5.900;2023-10-08T13:42:32;9.27;;;2.00;;
54139;SDS011;40046;53.254;5.900;2023-10-08T13:44:58;8.73;;;1.55;;
54139;SDS011;40046;53.254;5.900;2023-10-08T13:47:25;9.60;;;1.90;;
54139;SDS011;40046;53.254;5.900;2023-10-08T13:49:52;7.18;;;1.63;;
54139;SDS011;40046;53.254;5.900;2023-10-08T13:52:18;9.48;;;1.67;;
54139;SDS011;40046;53.254;5.900;2023-10-08T13:54:45;8.00;;;1.38;;
54139;SDS011;40046;53.254;5.900;2023-10-08T13:57:18;8.55;;;1.70;;
54139;SDS011;40046;53.254;5.900;2023-10-08T13:59:45;9.27;;;2.05;;
54139;SDS011;40046;53.254;5.900;2023-10-08T14:02:12;7.28;;;1.70;;
54139;SDS011;40046;53.254;5.900;2023-10-08T14:04:44;6.53;;;1.50;;
54139;SDS011;40046;53.254;5.900;2023-10-08T14:07:11;7.47;;;1.20;;
54139;SDS011;40046;53.254;5.900;2023-10-08T14:09:41;7.03;;;1.20;;
54139;SDS011;40046;53.254;5.900;2023-10-08T14:12:08;7.32;;;1.30;;
54139;SDS011;40046;53.254;5.900;2023-10-08T14:14:35;11.25;;;2.00;;
54139;SDS011;40046;53.254;5.900;2023-10-08T14:17:06;6.43;;;1.65;;
54139;SDS011;40046;53.254;5.900;2023-10-08T14:19:35;5.82;;;1.52;;
54139;SDS011;40046;53.254;5.900;2023-10-08T14:22:05;6.22;;;1.48;;
54139;SDS011;40046;53.254;5.900;2023-10-08T14:24:34;8.27;;;1.88;;
54139;SDS011;40046;53.254;5.900;2023-10-08T14:27:03;7.95;;;1.52;;
54139;SDS011;40046;53.254;5.900;2023-10-08T14:29:40;12.15;;;3.35;;
54139;SDS011;40046;53.254;5.900;2023-10-08T14:32:12;10.43;;;2.95;;
54139;SDS011;40046;53.254;5.900;2023-10-08T14:34:40;14.35;;;6.50;;
54139;SDS011;40046;53.254;5.900;2023-10-08T14:37:12;9.70;;;2.63;;
54139;SDS011;40046;53.254;5.900;2023-10-08T14:40:17;5.70;;;1.67;;
54139;SDS011;40046;53.254;5.900;2023-10-08T14:43:03;8.90;;;2.28;;
54139;SDS011;40046;53.254;5.900;2023-10-08T14:45:30;7.45;;;1.95;;
54139;SDS011;40046;53.254;5.900;2023-10-08T14:47:57;7.57;;;1.55;;
54139;SDS011;40046;53.254;5.900;2023-10-08T14:50:24;6.95;;;1.92;;
54139;SDS011;40046;53.254;5.900;2023-10-08T14:52:56;8.60;;;1.55;;
54139;SDS011;40046;53.254;5.900;2023-10-08T14:55:25;8.90;;;2.65;;
54139;SDS011;40046;53.254;5.900;2023-10-08T14:57:51;7.97;;;2.15;;
54139;SDS011;40046;53.254;5.900;2023-10-08T15:00:21;8.77;;;2.65;;
54139;SDS011;40046;53.254;5.900;2023-10-08T15:02:52;11.23;;;2.10;;
54139;SDS011;40046;53.254;5.900;2023-10-08T15:05:19;6.05;;;1.52;;
54139;SDS011;40046;53.254;5.900;2023-10-08T15:07:47;12.32;;;2.67;;
54139;SDS011;40046;53.254;5.900;2023-10-08T15:10:14;6.57;;;1.73;;
54139;SDS011;40046;53.254;5.900;2023-10-08T15:12:40;6.85;;;1.55;;
54139;SDS011;40046;53.254;5.900;2023-10-08T15:15:07;10.00;;;1.77;;
54139;SDS011;40046;53.254;5.900;2023-10-08T15:17:40;9.75;;;1.75;;
54139;SDS011;40046;53.254;5.900;2023-10-08T15:20:07;8.65;;;1.80;;
54139;SDS011;40046;53.254;5.900;2023-10-08T15:22:33;7.43;;;1.73;;
54139;SDS011;40046;53.254;5.900;2023-10-08T15:25:01;9.63;;;2.20;;
54139;SDS011;40046;53.254;5.900;2023-10-08T15:27:27;5.20;;;1.42;;